Time;durP1;ratioP1;P1;durP2;ratioP2;P2;SDS_P1;SDS_P2;PMS_P1;PMS_P2;Temp;Humidity;BMP_temperature;BMP_pressure;BME280_temperature;BME280_humidity;BME280_pressure;Samples;Min_cycle;Max_cycle;Signal;HPM_P1;HPM_P2
2023/07/29 00:00:55;;;;;;;6.43;2.83;;;19.60;99.90;;;19.95;90.96;99741.13;4995486;28;20045;-83
2023/07/29 00:03:23;;;;;;;6.05;2.70;;;19.60;99.90;;;19.94;90.83;99727.88;4995423;28;20050;-83
2023/07/29 00:05:50;;;;;;;8.43;2.85;;;19.70;99.90;;;19.95;91.18;99734.91;4995304;28;20117;-82
2023/07/29 00:08:17;;;;;;;5.43;2.30;;;19.60;99.90;;;19.94;90.81;99736.00;4998688;28;20097;-82
2023/07/29 00:10:44;;;;;;;4.50;2.72;;;19.60;99.90;;;19.94;90.77;99727.88;4995664;28;20035;-83
2023/07/29 00:13:12;;;;;;;8.07;2.80;;;19.60;99.90;;;19.92;90.69;99725.47;4995421;28;20058;-83
2023/07/29 00:15:39;;;;;;;5.47;2.95;;;19.60;99.90;;;19.91;90.41;99729.28;4995977;28;20074;-83
2023/07/29 00:18:07;;;;;;;4.75;2.70;;;19.60;99.90;;;19.92;90.44;99732.81;4994818;28;20073;-83
2023/07/29 00:20:34;;;;;;;11.10;3.58;;;19.60;99.90;;;19.89;90.99;99730.66;4988062;28;20456;-83
2023/07/29 00:23:02;;;;;;;6.80;2.60;;;19.60;99.90;;;19.87;90.78;99733.66;4993858;28;20563;-83
2023/07/29 00:25:29;;;;;;;5.30;3.00;;;19.60;99.90;;;19.86;91.13;99732.03;4995936;28;20049;-82
2023/07/29 00:27:58;;;;;;;6.68;2.72;;;19.60;99.90;;;19.87;90.77;99722.84;4995628;28;20126;-82
2023/07/29 00:30:25;;;;;;;4.75;2.92;;;19.60;99.90;;;19.87;90.80;99722.84;4993303;28;20129;-83
2023/07/29 00:32:52;;;;;;;8.15;2.65;;;19.60;99.90;;;19.88;91.00;99721.75;4993785;28;20058;-82
2023/07/29 00:35:21;;;;;;;4.97;2.80;;;19.60;99.90;;;19.88;90.66;99719.03;4994725;28;20438;-82
2023/07/29 00:37:48;;;;;;;6.22;2.60;;;19.60;99.90;;;19.90;90.94;99710.63;4994970;28;20046;-83
2023/07/29 00:40:21;;;;;;;3.80;2.33;;;19.60;99.90;;;19.90;90.75;99711.41;4993035;28;20045;-82
2023/07/29 00:42:49;;;;;;;5.00;2.47;;;19.60;99.90;;;19.92;90.95;99716.56;4993431;28;20594;-83
2023/07/29 00:45:16;;;;;;;11.07;3.22;;;19.60;99.90;;;19.92;91.18;99719.25;4993532;28;20046;-83
2023/07/29 00:47:45;;;;;;;5.32;2.78;;;19.60;99.90;;;19.90;91.35;99716.03;4995421;28;20069;-83
2023/07/29 00:50:15;;;;;;;8.95;2.85;;;19.60;99.90;;;19.90;91.39;99716.81;4994521;28;20470;-83
2023/07/29 00:52:44;;;;;;;4.38;2.90;;;19.60;99.90;;;19.91;91.50;99721.16;4993148;28;20054;-82
2023/07/29 00:55:11;;;;;;;5.13;2.33;;;19.60;99.90;;;19.92;91.29;99711.16;4993996;28;20170;-82
2023/07/29 00:57:40;;;;;;;6.00;2.58;;;19.60;99.90;;;19.92;91.19;99708.44;4993991;28;20050;-83
2023/07/29 01:00:09;;;;;;;4.03;2.78;;;19.60;99.90;;;19.90;91.44;99700.59;4994494;28;20573;-82
2023/07/29 01:02:36;;;;;;;4.72;2.80;;;19.60;99.90;;;19.90;91.09;99703.28;4992862;28;20066;-83
2023/07/29 01:05:04;;;;;;;6.78;3.08;;;19.60;99.90;;;19.89;90.68;99690.06;4993432;28;20137;-83
2023/07/29 01:07:40;;;;;;;4.93;2.75;;;19.60;99.90;;;19.87;90.31;99690.38;4993113;28;20049;-83
2023/07/29 01:10:26;;;;;;;7.05;2.90;;;19.60;99.90;;;19.87;89.67;99692.28;4992691;28;20053;-82
2023/07/29 01:13:01;;;;;;;4.18;2.75;;;19.60;99.90;;;19.84;89.70;99696.34;4993094;28;20137;-82
2023/07/29 01:15:37;;;;;;;5.18;3.20;;;19.50;99.90;;;19.84;89.31;99695.53;4982672;28;20609;-82
2023/07/29 01:18:09;;;;;;;4.22;2.70;;;19.50;99.90;;;19.83;89.42;99692.03;4993107;28;20042;-82
2023/07/29 01:20:41;;;;;;;5.32;2.67;;;19.50;99.90;;;19.82;89.29;99693.16;4988042;28;20054;-83
2023/07/29 01:23:08;;;;;;;4.00;2.40;;;19.50;99.90;;;19.79;89.02;99688.31;4992618;28;20066;-83
2023/07/29 01:25:37;;;;;;;5.25;2.88;;;19.50;99.90;;;19.80;89.70;99692.63;4992774;28;20064;-83
2023/07/29 01:28:06;;;;;;;7.33;2.53;;;19.40;99.90;;;19.79;89.56;99688.31;4993241;28;20042;-83
2023/07/29 01:30:42;;;;;;;7.43;3.05;;;19.50;99.90;;;19.79;89.54;99694.50;4994162;28;20073;-83
2023/07/29 01:33:17;;;;;;;7.18;2.85;;;19.40;99.90;;;19.79;90.36;99693.72;4992488;28;20050;-83
2023/07/29 01:35:49;;;;;;;5.32;2.63;;;19.50;99.90;;;19.79;90.50;99688.31;4993037;28;20051;-83
2023/07/29 01:38:20;;;;;;;5.60;2.40;;;19.50;99.90;;;19.79;90.78;99678.28;4992783;28;20154;-83
2023/07/29 01:40:51;;;;;;;;;;;19.50;99.90;;;19.80;91.10;99674.47;4992646;28;20055;-83
2023/07/29 01:43:23;;;;;;;4.73;2.83;;;19.50;99.90;;;19.79;91.35;99672.06;4992370;28;19938;-83
2023/07/29 01:45:50;;;;;;;5.15;2.83;;;19.50;99.90;;;19.81;91.36;99675.28;4993268;28;20054;-83
2023/07/29 01:48:18;;;;;;;4.88;2.60;;;19.50;99.90;;;19.81;91.71;99677.97;4993615;28;20046;-82
2023/07/29 01:50:45;;;;;;;4.30;2.70;;;19.50;99.90;;;19.80;91.97;99679.09;4992528;28;20057;-83
2023/07/29 01:53:12;;;;;;;6.60;2.60;;;19.50;99.90;;;19.79;92.04;99678.28;4993238;28;20044;-83
2023/07/29 01:55:40;;;;;;;9.93;3.13;;;19.50;99.90;;;19.80;92.13;99676.38;4992019;28;20054;-83
2023/07/29 01:58:09;;;;;;;3.70;2.40;;;19.50;99.90;;;19.80;92.30;99669.06;4992136;28;20471;-82
2023/07/29 02:00:38;;;;;;;3.92;2.60;;;19.50;99.90;;;19.81;91.93;99672.56;4992504;28;20129;-83
2023/07/29 02:03:05;;;;;;;6.65;2.50;;;19.50;99.90;;;19.82;92.09;99676.91;4993655;28;20056;-82
2023/07/29 02:05:32;;;;;;;3.63;2.63;;;19.50;99.90;;;19.81;92.61;99669.88;4992211;28;20046;-83
2023/07/29 02:08:00;;;;;;;6.00;2.20;;;19.50;99.90;;;19.82;92.75;99676.91;4992065;28;20480;-83
2023/07/29 02:10:27;;;;;;;5.00;2.70;;;19.60;99.90;;;19.83;92.76;99664.97;4991776;28;20097;-83
2023/07/29 02:12:55;;;;;;;4.45;2.75;;;19.50;99.90;;;19.82;93.26;99660.66;4972885;28;20042;-83
2023/07/29 02:15:23;;;;;;;4.00;2.60;;;19.50;99.90;;;19.80;93.60;99658.22;4991160;28;20050;-82
2023/07/29 02:17:51;;;;;;;4.07;2.75;;;19.60;99.90;;;19.82;93.53;99654.47;4991798;28;20058;-82
2023/07/29 02:20:19;;;;;;;4.57;2.72;;;19.60;99.90;;;19.80;93.52;99642.00;4993195;28;20034;-83
2023/07/29 02:22:47;;;;;;;4.53;3.00;;;19.60;99.90;;;19.82;93.66;99639.03;4992276;28;20058;-82
2023/07/29 02:25:14;;;;;;;9.60;2.60;;;19.60;99.90;;;19.82;93.80;99640.94;4991461;28;20088;-82
2023/07/29 02:27:42;;;;;;;4.20;2.80;;;19.60;99.90;;;19.82;93.45;99641.72;4992716;28;20518;-83
2023/07/29 02:30:10;;;;;;;8.93;2.58;;;19.60;99.90;;;19.81;93.51;99634.69;4991084;28;20045;-83
2023/07/29 02:32:39;;;;;;;5.05;2.78;;;19.60;99.90;;;19.80;94.02;99628.47;4993375;28;20053;-83
2023/07/29 02:35:07;;;;;;;7.68;2.78;;;19.60;99.90;;;19.80;94.15;99635.78;4991398;28;20046;-83
2023/07/29 02:37:35;;;;;;;6.07;2.60;;;19.50;99.90;;;19.80;94.05;99641.19;4990976;28;20062;-83
2023/07/29 02:40:02;;;;;;;4.35;2.55;;;19.50;99.90;;;19.80;93.53;99652.03;4992993;28;20034;-83
2023/07/29 02:42:30;;;;;;;5.72;2.70;;;19.50;99.90;;;19.79;94.20;99642.31;4991829;28;20101;-82
2023/07/29 02:44:58;;;;;;;8.75;3.13;;;19.50;99.90;;;19.80;94.43;99647.41;4991506;28;20140;-82
2023/07/29 02:47:26;;;;;;;5.28;3.00;;;19.50;99.90;;;19.78;94.84;99636.09;4991307;28;20165;-82
2023/07/29 02:49:54;;;;;;;5.22;2.80;;;19.40;99.90;;;19.77;95.04;99637.19;4990985;28;20093;-83
2023/07/29 02:52:22;;;;;;;6.68;2.97;;;19.50;99.90;;;19.73;96.25;99635.34;4991209;28;20093;-82
2023/07/29 02:54:49;;;;;;;5.45;2.85;;;19.50;99.90;;;19.69;95.88;99634.34;4992395;28;20080;-82
2023/07/29 02:57:17;;;;;;;6.85;2.90;;;19.50;99.90;;;19.68;96.30;99633.53;4991185;28;20049;-82
2023/07/29 02:59:45;;;;;;;6.85;3.00;;;19.40;99.90;;;19.68;96.31;99638.94;4991037;28;20061;-82
2023/07/29 03:02:12;;;;;;;5.80;2.90;;;19.50;99.90;;;19.68;96.00;99644.34;4991829;28;20407;-82
2023/07/29 03:04:39;;;;;;;9.52;3.10;;;19.50;99.90;;;19.68;96.17;99647.06;4993091;28;20078;-82
2023/07/29 03:07:08;;;;;;;9.60;3.80;;;19.50;99.90;;;19.65;96.52;99660.34;4991511;28;20137;-82
2023/07/29 03:09:38;;;;;;;7.88;3.05;;;19.50;99.90;;;19.64;97.12;99662.25;4992750;28;20042;-82
2023/07/29 03:12:05;;;;;;;4.07;3.03;;;19.40;99.90;;;19.65;97.53;99663.06;4991594;28;20102;-82
2023/07/29 03:14:33;;;;;;;9.18;3.20;;;19.40;99.90;;;19.67;97.57;99663.59;4991266;28;20438;-82
2023/07/29 03:17:04;;;;;;;5.25;2.97;;;19.40;99.90;;;19.69;97.43;99661.38;4990989;28;20513;-83
2023/07/29 03:19:31;;;;;;;;;;;19.40;99.90;;;19.70;97.84;99652.16;4998728;28;20042;-82
2023/07/29 03:21:58;;;;;;;8.60;3.28;;;19.50;99.90;;;19.71;97.70;99659.19;4991017;28;19930;-82
2023/07/29 03:24:27;;;;;;;6.97;3.33;;;19.50;99.90;;;19.71;97.53;99654.56;4990681;28;20050;-82
2023/07/29 03:26:54;;;;;;;4.72;2.67;;;19.50;99.90;;;19.72;97.17;99648.09;4993302;28;20046;-82
2023/07/29 03:29:21;;;;;;;7.63;3.30;;;19.50;99.90;;;19.73;96.82;99654.31;4996910;28;20078;-82
2023/07/29 03:31:48;;;;;;;10.15;3.35;;;19.50;99.90;;;19.72;96.75;99648.09;4994342;28;20125;-82
2023/07/29 03:34:15;;;;;;;7.47;3.38;;;19.50;99.90;;;19.71;96.72;99651.88;4995064;28;20319;-82
2023/07/29 03:36:47;;;;;;;5.47;3.60;;;19.50;99.90;;;19.72;96.29;99655.41;4994329;28;20100;-83
2023/07/29 03:39:15;;;;;;;10.95;3.97;;;19.50;99.90;;;19.71;96.26;99651.06;4995981;28;20038;-82
2023/07/29 03:41:43;;;;;;;5.75;3.42;;;19.40;99.90;;;19.71;96.21;99651.06;4994849;28;20038;-82
2023/07/29 03:44:10;;;;;;;4.82;2.97;;;19.40;99.90;;;19.72;95.71;99650.78;4994966;28;20109;-83
2023/07/29 03:46:38;;;;;;;5.82;3.40;;;19.50;99.90;;;19.71;95.86;99646.47;4993842;28;20050;-82
2023/07/29 03:49:07;;;;;;;5.30;3.75;;;19.50;99.90;;;19.72;96.04;99644.59;4994454;28;20499;-82
2023/07/29 03:51:34;;;;;;;5.18;3.40;;;19.50;99.90;;;19.72;96.04;99639.97;4994051;28;20051;-82
2023/07/29 03:54:01;;;;;;;6.88;3.60;;;19.50;99.90;;;19.71;96.21;99632.94;4991111;28;20054;-83
2023/07/29 03:56:29;;;;;;;12.43;4.00;;;19.40;99.90;;;19.68;96.16;99625.41;4991863;28;20070;-82
2023/07/29 03:59:04;;;;;;;8.70;4.97;;;19.50;99.90;;;19.69;95.97;99616.19;4995058;28;20646;-82
2023/07/29 04:01:30;;;;;;;7.57;4.45;;;19.50;99.90;;;19.71;96.20;99632.13;4994159;28;20057;-82
2023/07/29 04:03:59;;;;;;;9.50;4.75;;;19.40;99.90;;;19.68;96.81;99638.94;4994796;28;20778;-82
2023/07/29 04:06:26;;;;;;;6.82;4.00;;;19.40;99.90;;;19.65;97.94;99619.78;4993888;28;20047;-81
2023/07/29 04:08:53;;;;;;;11.23;4.53;;;19.40;99.90;;;19.64;97.11;99605.44;4994076;28;20137;-82
2023/07/29 04:11:21;;;;;;;10.20;4.40;;;19.40;99.90;;;19.68;97.47;99616.50;4994193;28;20046;-82
2023/07/29 04:13:48;;;;;;;5.75;3.90;;;19.40;99.90;;;19.68;96.94;99624.63;4994296;28;20423;-82
2023/07/29 04:16:17;;;;;;;10.50;4.65;;;19.40;99.90;;;19.67;96.46;99637.34;4996921;28;20038;-81
2023/07/29 04:18:44;;;;;;;10.55;4.88;;;19.40;99.90;;;19.68;96.09;99644.34;4993776;28;20058;-82
2023/07/29 04:21:12;;;;;;;6.13;4.20;;;19.40;99.90;;;19.68;96.02;99641.66;4994116;28;20125;-82
2023/07/29 04:23:40;;;;;;;8.95;4.53;;;19.40;99.90;;;19.68;95.85;99620.00;4993787;28;20054;-82
2023/07/29 04:26:07;;;;;;;11.15;4.57;;;19.40;99.90;;;19.68;95.90;99621.91;4994083;28;20054;-82
2023/07/29 04:28:34;;;;;;;6.13;4.15;;;19.50;99.90;;;19.69;95.81;99627.00;4993601;28;20046;-82
2023/07/29 04:31:02;;;;;;;10.38;4.18;;;19.40;99.90;;;19.69;96.10;99634.34;4944507;28;20050;-83
2023/07/29 04:33:31;;;;;;;9.50;4.88;;;19.50;99.90;;;19.69;96.19;99650.56;4993757;28;20073;-83
2023/07/29 04:35:58;;;;;;;11.38;5.50;;;19.40;99.90;;;19.67;96.56;99664.38;4993688;28;20046;-82
2023/07/29 04:38:34;;;;;;;11.07;6.38;;;19.40;99.90;;;19.62;96.92;99669.03;4993434;28;20139;-82
2023/07/29 04:41:01;;;;;;;8.63;6.10;;;19.40;99.90;;;19.61;97.78;99653.91;4988850;28;20093;-82
2023/07/29 04:43:29;;;;;;;9.35;6.05;;;19.40;99.90;;;19.60;97.18;99663.13;4990302;28;20042;-82
2023/07/29 04:45:56;;;;;;;8.32;6.10;;;19.40;99.90;;;19.60;97.27;99660.41;4993448;28;20043;-82
2023/07/29 04:48:23;;;;;;;10.40;6.13;;;19.40;99.90;;;19.58;97.21;99666.09;4994616;28;20052;-82
2023/07/29 04:50:52;;;;;;;11.32;6.15;;;19.40;99.90;;;19.60;97.31;99682.06;4993260;28;20507;-83
2023/07/29 04:53:19;;;;;;;9.02;6.32;;;19.40;99.90;;;19.61;96.56;99689.06;4994174;28;20049;-83
2023/07/29 04:55:47;;;;;;;10.77;6.38;;;19.40;99.90;;;19.58;96.71;99687.75;4992957;28;20054;-83
2023/07/29 04:58:14;;;;;;;8.93;7.03;;;19.40;99.90;;;19.58;97.29;99686.94;4993947;28;20057;-82
2023/07/29 05:00:41;;;;;;;13.25;9.50;;;19.40;99.90;;;19.56;96.24;99688.00;4994395;28;20074;-82
2023/07/29 05:03:10;;;;;;;13.18;9.02;;;19.40;99.90;;;19.51;96.64;99693.47;4993527;28;20050;-82
2023/07/29 05:05:37;;;;;;;12.80;10.57;;;19.30;99.90;;;19.47;97.44;99687.06;4994909;28;20491;-82
2023/07/29 05:08:06;;;;;;;18.00;12.35;;;19.30;99.90;;;19.44;97.37;99679.53;4993251;28;20042;-82
2023/07/29 05:10:33;;;;;;;15.63;11.68;;;19.30;99.90;;;19.43;97.16;99675.22;4992854;28;20042;-82
2023/07/29 05:13:00;;;;;;;17.63;12.63;;;19.30;99.90;;;19.47;97.04;99665.44;4994027;28;20046;-82
2023/07/29 05:15:27;;;;;;;14.73;11.45;;;19.30;99.90;;;19.49;97.01;99660.53;4993493;28;20039;-82
2023/07/29 05:17:55;;;;;;;13.30;11.45;;;19.30;99.90;;;19.52;96.96;99651.84;4989288;28;20193;-82
2023/07/29 05:20:22;;;;;;;16.42;11.40;;;19.40;99.90;;;19.57;96.80;99642.84;4991290;28;20042;-83
2023/07/29 05:22:49;;;;;;;18.00;12.98;;;19.40;99.90;;;19.63;97.19;99624.69;4991966;28;20755;-83
2023/07/29 05:25:18;;;;;;;13.88;12.38;;;19.50;99.90;;;19.67;96.66;99636.53;4992321;28;20078;-82
2023/07/29 05:27:45;;;;;;;15.15;12.60;;;19.50;99.90;;;19.69;95.83;99640.53;4995720;28;20081;-82
2023/07/29 05:30:12;;;;;;;18.08;13.48;;;19.50;99.90;;;19.70;96.35;99641.34;4989239;28;20054;-82
2023/07/29 05:32:40;;;;;;;16.52;14.07;;;19.50;99.90;;;19.71;95.55;99646.47;4991626;28;20057;-83
2023/07/29 05:35:08;;;;;;;16.52;13.90;;;19.50;99.90;;;19.73;94.99;99641.56;4993002;28;20070;-84
2023/07/29 05:37:36;;;;;;;18.30;14.30;;;19.60;99.90;;;19.72;95.03;99667.03;4993044;28;20054;-83
2023/07/29 05:40:04;;;;;;;17.55;13.45;;;19.60;99.90;;;19.73;94.93;99671.34;4992270;28;20132;-82
2023/07/29 05:42:32;;;;;;;20.10;13.95;;;19.50;99.90;;;19.72;94.46;99687.88;4992579;28;20053;-82
2023/07/29 05:45:00;;;;;;;16.63;14.10;;;19.60;99.90;;;19.70;94.21;99692.75;4992653;28;20081;-83
2023/07/29 05:47:27;;;;;;;16.52;13.98;;;19.60;99.90;;;19.63;93.65;99690.41;4993958;28;20432;-83
2023/07/29 05:49:54;;;;;;;18.27;14.18;;;19.50;99.90;;;19.64;94.12;99705.53;4991553;28;20043;-82
2023/07/29 05:52:22;;;;;;;14.48;12.27;;;19.50;99.90;;;19.63;93.92;99708.53;4994046;28;20224;-83
2023/07/29 05:54:49;;;;;;;13.35;10.88;;;19.50;99.90;;;19.54;92.57;99711.84;4991410;28;20455;-82
2023/07/29 05:57:16;;;;;;;13.00;9.88;;;19.40;99.90;;;19.51;92.63;99715.13;4994793;28;20087;-82
2023/07/29 05:59:45;;;;;;;12.52;8.95;;;19.40;99.90;;;19.54;93.01;99709.16;4992526;28;20455;-82
2023/07/29 06:02:12;;;;;;;13.65;8.70;;;19.40;99.90;;;19.55;92.50;99715.34;4992106;28;20593;-82
2023/07/29 06:04:39;;;;;;;10.57;7.45;;;19.40;99.90;;;19.49;91.63;99711.91;4991815;28;20089;-81
2023/07/29 06:07:08;;;;;;;10.82;7.50;;;19.30;99.90;;;19.50;91.92;99713.53;4992785;28;20061;-82
2023/07/29 06:09:36;;;;;;;11.05;6.18;;;19.30;99.90;;;19.43;90.01;99720.38;4990569;28;20054;-84
2023/07/29 06:12:04;;;;;;;8.02;5.03;;;19.30;99.90;;;19.41;89.27;99726.06;4990323;28;20077;-82
2023/07/29 06:14:31;;;;;;;7.90;5.20;;;19.20;99.90;;;19.43;88.97;99726.59;4990635;28;20137;-82
2023/07/29 06:17:00;;;;;;;7.78;4.60;;;19.20;99.90;;;19.41;88.10;99736.06;4991468;28;20050;-82
2023/07/29 06:19:27;;;;;;;9.82;4.80;;;19.20;99.90;;;19.38;88.06;99742.88;4990724;28;20042;-82
2023/07/29 06:21:57;;;;;;;8.55;4.82;;;19.20;99.90;;;19.40;89.01;99746.09;4990385;28;20066;-81
2023/07/29 06:24:24;;;;;;;9.50;4.15;;;19.20;99.90;;;19.44;89.07;99735.50;5022285;28;20049;-82
2023/07/29 06:26:51;;;;;;;6.35;3.80;;;19.20;99.90;;;19.43;88.41;99752.84;4990224;28;20052;-82
2023/07/29 06:29:19;;;;;;;8.25;4.13;;;19.20;99.90;;;19.45;87.76;99754.16;4991770;28;20120;-82
2023/07/29 06:31:46;;;;;;;6.25;4.03;;;19.30;99.90;;;19.40;86.13;99748.78;4990773;28;20068;-82
2023/07/29 06:34:14;;;;;;;9.98;3.80;;;19.20;99.90;;;19.45;87.64;99764.16;4992337;28;20046;-82
2023/07/29 06:36:42;;;;;;;7.82;4.00;;;19.30;99.90;;;19.46;87.41;99760.38;4993144;28;20084;-82
2023/07/29 06:39:09;;;;;;;7.40;3.33;;;19.30;99.90;;;19.43;86.10;99760.97;4991959;28;20074;-82
2023/07/29 06:41:36;;;;;;;8.70;3.42;;;19.30;99.90;;;19.37;85.80;99762.09;4991448;28;20042;-82
2023/07/29 06:44:05;;;;;;;6.03;3.30;;;19.20;99.90;;;19.42;86.61;99759.31;4990564;28;20129;-82
2023/07/29 06:46:33;;;;;;;7.32;3.58;;;19.30;99.90;;;19.51;84.77;99768.41;4991757;28;20491;-82
2023/07/29 06:49:00;;;;;;;6.75;4.18;;;19.40;99.90;;;19.71;86.26;99762.00;4990880;28;20137;-82
2023/07/29 06:51:32;;;;;;;13.15;4.07;;;19.70;99.90;;;19.77;86.65;99767.06;4989780;28;20043;-82
2023/07/29 06:54:00;;;;;;;8.65;3.55;;;19.70;99.90;;;19.77;85.57;99761.66;4992652;28;20042;-82
2023/07/29 06:56:27;;;;;;;8.70;3.85;;;19.70;99.90;;;19.75;83.96;99763.03;4990000;28;20050;-81
2023/07/29 06:58:54;;;;;;;9.90;3.60;;;19.70;99.90;;;19.64;82.53;99764.25;4994114;28;20121;-82
2023/07/29 07:01:22;;;;;;;9.48;3.35;;;19.60;99.90;;;19.65;84.01;99749.63;4988001;28;20121;-82
2023/07/29 07:03:49;;;;;;;6.60;3.42;;;19.60;99.90;;;19.66;83.95;99760.16;4990318;28;20594;-82
2023/07/29 07:06:16;;;;;;;7.45;3.67;;;19.60;99.90;;;19.63;82.97;99755.34;4992170;28;20121;-82
2023/07/29 07:08:45;;;;;;;6.65;3.50;;;19.60;99.90;;;19.77;83.39;99758.16;4993965;28;20414;-82
2023/07/29 07:11:12;;;;;;;6.45;3.60;;;19.70;99.90;;;19.83;82.97;99751.56;4992965;28;20050;-82
2023/07/29 07:13:39;;;;;;;6.43;3.30;;;19.80;99.90;;;19.95;84.25;99754.66;4992512;28;20038;-82
2023/07/29 07:16:06;;;;;;;6.40;3.35;;;19.90;99.90;;;19.94;83.52;99753.03;4993136;28;20074;-82
2023/07/29 07:18:34;;;;;;;8.63;3.22;;;19.90;99.90;;;20.03;83.72;99756.72;4991105;28;20464;-82
2023/07/29 07:21:01;;;;;;;5.45;3.05;;;20.00;99.90;;;20.19;83.52;99767.34;4993403;28;20051;-83
2023/07/29 07:23:28;;;;;;;6.90;3.28;;;20.20;99.90;;;20.18;81.69;99763.03;4992048;28;20044;-82
2023/07/29 07:25:57;;;;;;;7.43;3.00;;;20.20;99.90;;;20.30;83.07;99763.38;4992370;28;20042;-82
2023/07/29 07:28:24;;;;;;;5.85;2.83;;;20.40;99.90;;;20.39;81.83;99761.63;4992108;28;20069;-82
2023/07/29 07:30:51;;;;;;;7.22;2.95;;;20.50;99.90;;;20.44;81.70;99763.44;4992487;28;20069;-82
2023/07/29 07:33:18;;;;;;;6.57;3.20;;;20.60;99.90;;;20.54;81.33;99760.63;4990650;28;20096;-82
2023/07/29 07:35:46;;;;;;;6.68;3.38;;;20.70;99.90;;;20.54;81.12;99757.91;4991056;28;20129;-82
2023/07/29 07:38:13;;;;;;;6.15;2.90;;;20.70;99.90;;;20.64;80.96;99759.66;4991129;28;20046;-82
2023/07/29 07:40:41;;;;;;;6.53;2.88;;;20.80;99.90;;;20.77;81.36;99761.63;4990765;28;20526;-82
2023/07/29 07:43:10;;;;;;;15.32;3.38;;;21.00;99.90;;;20.76;80.67;99755.41;4991209;28;20034;-83
2023/07/29 07:45:37;;;;;;;4.93;2.85;;;21.00;99.90;;;20.87;79.49;99753.31;4991279;28;20061;-82
2023/07/29 07:48:05;;;;;;;6.20;2.90;;;21.10;99.90;;;20.99;77.78;99753.66;4991536;28;20152;-81
2023/07/29 07:50:32;;;;;;;5.93;3.03;;;21.30;99.90;;;21.14;78.35;99747.16;4991966;28;20129;-82
2023/07/29 07:52:59;;;;;;;4.55;2.30;;;21.50;99.90;;;21.15;77.23;99761.53;4992269;28;20484;-82
2023/07/29 07:55:26;;;;;;;4.95;2.55;;;21.50;99.90;;;21.08;76.73;99756.47;4991410;28;20503;-83
2023/07/29 07:57:54;;;;;;;8.45;2.63;;;21.40;99.90;;;21.03;77.21;99757.38;4991660;28;20486;-82
2023/07/29 08:00:22;;;;;;;5.75;2.67;;;21.30;99.90;;;20.90;73.49;99757.34;4993323;28;20068;-83
2023/07/29 08:02:49;;;;;;;6.32;2.70;;;21.20;99.90;;;20.80;74.77;99761.03;4996951;28;20578;-82
2023/07/29 08:05:18;;;;;;;5.30;2.88;;;21.00;99.90;;;20.76;73.73;99766.22;5002805;28;20042;-82
2023/07/29 08:07:45;;;;;;;6.10;3.45;;;21.00;99.90;;;20.84;73.25;99767.47;4992593;28;20058;-83
2023/07/29 08:10:12;;;;;;;5.93;3.63;;;21.10;99.90;;;21.00;75.77;99765.31;4992679;28;20074;-83
2023/07/29 08:12:39;;;;;;;5.28;3.40;;;21.20;99.90;;;21.12;73.03;99768.34;4990899;28;20142;-83
2023/07/29 08:15:08;;;;;;;6.72;3.13;;;21.40;99.90;;;21.10;71.06;99762.41;4994943;28;20118;-82
2023/07/29 08:17:36;;;;;;;4.50;2.55;;;21.40;99.90;;;21.06;72.58;99762.19;4995325;28;20125;-81
2023/07/29 08:20:04;;;;;;;7.47;3.08;;;21.40;99.90;;;21.05;71.50;99771.44;4992691;28;20042;-80
2023/07/29 08:22:32;;;;;;;4.95;1.92;;;21.40;99.90;;;21.11;70.17;99761.31;4994724;28;20530;-81
2023/07/29 08:24:59;;;;;;;5.28;2.38;;;21.40;99.90;;;21.10;70.06;99762.41;4994004;28;20034;-81
2023/07/29 08:27:26;;;;;;;3.67;2.10;;;21.40;99.90;;;21.11;68.94;99765.94;4995538;28;20073;-81
2023/07/29 08:29:55;;;;;;;5.40;2.55;;;21.40;99.10;;;21.19;71.79;99762.53;4994651;28;20726;-81
2023/07/29 08:32:22;;;;;;;4.85;2.70;;;21.50;99.90;;;21.21;71.11;99771.97;4995367;28;20066;-81
2023/07/29 08:34:51;;;;;;;4.07;2.50;;;21.50;99.90;;;21.11;71.69;99765.94;4995072;28;20177;-81
2023/07/29 08:37:18;;;;;;;5.85;2.58;;;21.40;99.90;;;21.09;72.22;99771.66;4993555;28;20061;-81
2023/07/29 08:39:45;;;;;;;4.57;2.72;;;21.30;99.90;;;21.14;72.06;99768.84;4994409;28;20144;-81
2023/07/29 08:42:13;;;;;;;6.45;2.83;;;21.40;99.90;;;21.27;71.05;99759.09;4994596;28;20405;-82
2023/07/29 08:44:44;;;;;;;4.05;1.80;;;21.50;99.90;;;21.45;71.49;99760.97;4994990;28;20046;-82
2023/07/29 08:47:13;;;;;;;6.15;1.80;;;21.80;99.90;;;21.59;70.55;99759.06;4988025;28;20058;-83
2023/07/29 08:49:41;;;;;;;8.73;3.10;;;21.90;99.90;;;21.52;69.26;99758.69;4995028;28;20495;-82
2023/07/29 08:52:10;;;;;;;6.47;2.25;;;21.80;99.40;;;21.45;70.30;99754.75;4995436;28;20053;-83
2023/07/29 08:54:38;;;;;;;4.18;1.73;;;21.80;99.90;;;21.41;71.37;99749.13;4995511;28;20760;-84
2023/07/29 08:57:07;;;;;;;3.75;2.08;;;21.70;99.90;;;21.29;70.48;99751.50;4995653;28;20048;-85
2023/07/29 08:59:34;;;;;;;4.43;2.15;;;21.60;99.90;;;21.19;69.96;99747.06;4995023;28;20575;-85
2023/07/29 09:02:02;;;;;;;4.40;2.15;;;21.50;99.90;;;21.33;72.19;99749.81;4996328;28;20070;-85
2023/07/29 09:04:29;;;;;;;3.22;1.63;;;21.70;99.90;;;21.40;71.36;99746.72;4995349;28;20050;-85
2023/07/29 09:06:57;;;;;;;3.63;1.63;;;21.70;99.90;;;21.49;68.96;99744.91;4995240;28;20046;-85
2023/07/29 09:09:26;;;;;;;3.10;1.80;;;21.80;99.10;;;21.53;70.18;99737.78;4996633;28;20043;-85
2023/07/29 09:11:54;;;;;;;5.75;1.50;;;21.90;99.90;;;21.62;69.92;99754.97;4994762;28;20046;-85
2023/07/29 09:14:22;;;;;;;3.30;1.48;;;22.00;99.90;;;21.74;67.88;99760.66;4994976;28;20133;-85
2023/07/29 09:16:49;;;;;;;4.85;1.55;;;22.10;98.70;;;21.84;68.81;99762.38;4996322;28;20113;-85
2023/07/29 09:19:16;;;;;;;3.63;1.42;;;22.30;98.70;;;21.84;65.89;99762.38;4995041;28;20470;-85
2023/07/29 09:21:47;;;;;;;3.25;1.67;;;22.30;95.90;;;21.95;69.11;99765.66;4994901;28;20070;-85
2023/07/29 09:24:18;;;;;;;4.97;1.53;;;22.40;98.50;;;21.94;67.47;99762.16;4996590;28;20211;-85
2023/07/29 09:26:53;;;;;;;5.53;1.45;;;22.40;97.00;;;21.97;67.84;99766.19;4996727;28;20492;-85
2023/07/29 09:29:37;;;;;;;3.03;1.23;;;22.40;97.50;;;21.88;66.63;99760.66;5002799;23;20042;-84
2023/07/29 09:32:22;;;;;;;3.83;1.40;;;22.30;96.30;;;21.77;66.72;99765.50;4973754;28;20158;-85
2023/07/29 09:34:49;;;;;;;3.25;1.73;;;22.10;96.20;;;21.77;68.45;99765.50;4975359;28;20126;-85
2023/07/29 09:37:21;;;;;;;5.57;2.00;;;22.10;98.30;;;21.70;68.72;99765.09;4975200;28;20396;-85
2023/07/29 09:39:50;;;;;;;3.67;1.90;;;22.00;98.70;;;21.64;67.55;99773.66;4958329;28;20081;-85
2023/07/29 09:42:21;;;;;;;3.20;1.80;;;21.90;97.90;;;21.57;70.33;99780.28;4974140;28;20412;-84
2023/07/29 09:44:51;;;;;;;3.70;1.80;;;21.80;99.90;;;21.40;69.15;99779.25;4974129;28;20137;-84
2023/07/29 09:47:23;;;;;;;4.38;2.00;;;21.70;99.30;;;21.35;69.15;99766.59;4974256;28;20050;-83
2023/07/29 09:49:51;;;;;;;3.08;1.60;;;21.60;99.50;;;21.27;69.42;99776.19;4974861;28;20046;-83
2023/07/29 09:52:19;;;;;;;4.05;1.70;;;21.50;99.40;;;21.26;69.35;99777.28;4975130;28;20061;-84
2023/07/29 09:54:47;;;;;;;5.53;1.80;;;21.40;99.90;;;21.21;70.03;99776.59;4973752;28;20468;-84
2023/07/29 09:57:17;;;;;;;5.40;1.60;;;21.30;99.90;;;21.14;68.91;99781.63;4973357;28;20137;-87
2023/07/29 09:59:55;;;;;;;2.65;1.30;;;21.30;99.60;;;21.13;70.04;99774.56;4973205;28;20046;-87
2023/07/29 10:02:23;;;;;;;3.75;1.38;;;21.20;99.90;;;21.15;71.14;99785.94;4973476;28;20142;-87
2023/07/29 10:04:52;;;;;;;3.83;1.40;;;21.20;99.90;;;21.17;71.31;99781.00;4973164;28;20062;-87
2023/07/29 10:07:21;;;;;;;6.10;1.50;;;21.20;99.90;;;21.05;69.20;99779.56;4998459;28;20062;-87
2023/07/29 10:09:49;;;;;;;3.40;1.30;;;21.20;99.90;;;21.12;71.60;99778.38;4992605;28;20074;-88
2023/07/29 10:12:17;;;;;;;2.85;1.35;;;21.20;99.90;;;21.17;70.40;99775.56;4989315;28;20138;-85
2023/07/29 10:14:48;;;;;;;2.85;1.65;;;21.20;99.90;;;21.26;73.28;99768.34;4973598;28;20086;-88
2023/07/29 10:17:17;;;;;;;98.55;5.35;;;21.40;99.90;;;21.46;72.19;99778.84;4954453;29;20122;-85
2023/07/29 10:19:46;;;;;;;4.32;1.30;;;21.70;99.90;;;21.57;70.65;99774.06;4953960;28;20541;-87
2023/07/29 10:22:14;;;;;;;6.47;1.42;;;21.80;99.90;;;21.70;72.87;99775.16;4973791;28;20514;-88